Rechercher aéroport 
image banner adimage banner adimage banner ad
image banner ad

CA87 - Sce Songs Mesa

Situé à San Clemente, United States

ICAO - CA87, IATA -

Données fournies par Airmate  

Information générale

Coordonnées: N33°22'46" W117°33'35"
Élévation : 100 feet MSL.
Variation magnétique : 14° East
Voir autres Aéroports à California

Données opérationnelles

Special qualification required
Heure actuelle UTC:
Heure actuelle locale:
METAR: KNFG 210055Z VRB05KT 10SM CLR 24/16 A2990 RMK AO2 SLP124 T02390156
TAF: TAF KNFG 2021/2121 21010KT 9999 SKC QNH2986INS BECMG 2101/2103 VRB05KT 9999 SKC QNH2996INS TEMPO 2107/2113 8000 BR FM211400 VRB05KT 9999 SKC QNH3001INS BECMG 2118/2120 22007KT 9999 SKC QNH3002INS T16/2113Z T30/2121Z
Voir NOTAMs / SUP AIP / TFR affectant cet aéroport [VIEW]
Fréquences de communication: [VIEW]

Pistes:

Coordonnées de l'aéroport

Adresse: San Clemente United States

Vue satellite de CA87